首页
METAR-TAF:

METAR-TAF

机场 :

Stewart, 不列颠哥伦比亚, 加拿大

纬度: 55-56N, 经度: 129-59W, 海拔: 7米

当前天气观测

该预报发布于1小时和0分钟前的21:00 UTC
风速2节,风向多变
温度 24°C
湿度 36%
气压 1014 hPa
能見度: 24.1公里
少量云层高于20000英尺

METAR: CZST 262100Z VRB02KT 15SM FEW200 24/08 A2995 RMK CS1 CS TR FU N+S QUADS SLP145 DENSITY ALT 1100FT

时间: 15:00 (22:00 UTC)


TAF: 丢失

超过4000个机场的气象观测和天气预报(METAR&TAF报告)。

可查询的气象台以黄色和红色小点在地图上表示。

将鼠标移到小点上方,可查看气象台名称。

然后点击查看天气观测和预报。

如需切换地图:点击带黑十字的绿色按钮放大地图;点击带横线的绿色按钮缩小地图;或者点击绿色箭头查看邻近地区的地图。


METAR-TAF: